sensor_id;sensor_type;location;lat;lon;timestamp;temperature;humidity
44767;DHT22;30487;48.716;9.272;2023-10-08T00:01:15;16.20;76.30
44767;DHT22;30487;48.716;9.272;2023-10-08T00:03:42;16.10;76.50
44767;DHT22;30487;48.716;9.272;2023-10-08T00:06:13;16.10;76.50
44767;DHT22;30487;48.716;9.272;2023-10-08T00:08:40;16.20;76.30
44767;DHT22;30487;48.716;9.272;2023-10-08T00:11:06;16.10;76.50
44767;DHT22;30487;48.716;9.272;2023-10-08T00:13:33;16.10;76.80
44767;DHT22;30487;48.716;9.272;2023-10-08T00:16:09;16.10;77.70
44767;DHT22;30487;48.716;9.272;2023-10-08T00:18:36;16.00;77.60
44767;DHT22;30487;48.716;9.272;2023-10-08T00:21:03;16.00;77.30
44767;DHT22;30487;48.716;9.272;2023-10-08T00:23:36;16.00;77.10
44767;DHT22;30487;48.716;9.272;2023-10-08T00:26:07;16.00;77.20
44767;DHT22;30487;48.716;9.272;2023-10-08T00:28:33;16.00;77.30
44767;DHT22;30487;48.716;9.272;2023-10-08T00:31:01;16.00;77.00
44767;DHT22;30487;48.716;9.272;2023-10-08T00:33:37;16.00;77.20
44767;DHT22;30487;48.716;9.272;2023-10-08T00:36:02;16.00;76.80
44767;DHT22;30487;48.716;9.272;2023-10-08T00:38:43;16.10;76.70
44767;DHT22;30487;48.716;9.272;2023-10-08T00:41:13;16.00;76.90
44767;DHT22;30487;48.716;9.272;2023-10-08T00:43:40;16.10;76.90
44767;DHT22;30487;48.716;9.272;2023-10-08T00:46:07;16.10;76.80
44767;DHT22;30487;48.716;9.272;2023-10-08T00:48:46;16.10;77.00
44767;DHT22;30487;48.716;9.272;2023-10-08T00:51:12;16.10;77.10
44767;DHT22;30487;48.716;9.272;2023-10-08T00:54:06;16.10;77.00
44767;DHT22;30487;48.716;9.272;2023-10-08T00:56:34;16.10;77.10
44767;DHT22;30487;48.716;9.272;2023-10-08T00:59:19;16.10;77.40
44767;DHT22;30487;48.716;9.272;2023-10-08T01:01:50;16.00;77.60
44767;DHT22;30487;48.716;9.272;2023-10-08T01:04:25;16.10;77.90
44767;DHT22;30487;48.716;9.272;2023-10-08T01:06:59;16.00;78.10
44767;DHT22;30487;48.716;9.272;2023-10-08T01:09:29;16.00;78.30
44767;DHT22;30487;48.716;9.272;2023-10-08T01:12:16;16.00;78.40
44767;DHT22;30487;48.716;9.272;2023-10-08T01:14:55;16.00;78.50
44767;DHT22;30487;48.716;9.272;2023-10-08T01:17:24;16.00;78.40
44767;DHT22;30487;48.716;9.272;2023-10-08T01:19:51;16.00;78.80
44767;DHT22;30487;48.716;9.272;2023-10-08T01:22:22;16.00;78.30
44767;DHT22;30487;48.716;9.272;2023-10-08T01:24:48;16.00;78.20
44767;DHT22;30487;48.716;9.272;2023-10-08T01:27:18;16.00;78.30
44767;DHT22;30487;48.716;9.272;2023-10-08T01:29:50;16.10;78.30
44767;DHT22;30487;48.716;9.272;2023-10-08T01:32:22;16.10;78.00
44767;DHT22;30487;48.716;9.272;2023-10-08T01:34:48;16.10;78.20
44767;DHT22;30487;48.716;9.272;2023-10-08T01:37:16;16.10;78.60
44767;DHT22;30487;48.716;9.272;2023-10-08T01:39:45;16.10;78.50
44767;DHT22;30487;48.716;9.272;2023-10-08T01:42:13;16.00;78.20
44767;DHT22;30487;48.716;9.272;2023-10-08T01:44:49;16.00;78.30
44767;DHT22;30487;48.716;9.272;2023-10-08T01:47:16;16.00;78.30
44767;DHT22;30487;48.716;9.272;2023-10-08T01:49:43;16.00;78.30
44767;DHT22;30487;48.716;9.272;2023-10-08T01:52:12;16.00;78.90
44767;DHT22;30487;48.716;9.272;2023-10-08T01:54:43;16.00;78.60
44767;DHT22;30487;48.716;9.272;2023-10-08T01:57:10;16.00;78.50
44767;DHT22;30487;48.716;9.272;2023-10-08T01:59:36;16.10;79.30
44767;DHT22;30487;48.716;9.272;2023-10-08T02:02:03;16.10;78.40
44767;DHT22;30487;48.716;9.272;2023-10-08T02:04:33;16.00;78.50
44767;DHT22;30487;48.716;9.272;2023-10-08T02:07:03;16.10;78.40
44767;DHT22;30487;48.716;9.272;2023-10-08T02:09:41;16.10;78.20
44767;DHT22;30487;48.716;9.272;2023-10-08T02:12:06;16.10;77.60
44767;DHT22;30487;48.716;9.272;2023-10-08T02:14:33;16.20;77.30
44767;DHT22;30487;48.716;9.272;2023-10-08T02:17:01;16.20;77.60
44767;DHT22;30487;48.716;9.272;2023-10-08T02:19:34;16.20;77.60
44767;DHT22;30487;48.716;9.272;2023-10-08T02:22:02;16.10;77.40
44767;DHT22;30487;48.716;9.272;2023-10-08T02:24:31;16.20;77.50
44767;DHT22;30487;48.716;9.272;2023-10-08T02:26:58;16.10;77.40
44767;DHT22;30487;48.716;9.272;2023-10-08T02:29:28;16.10;77.40
44767;DHT22;30487;48.716;9.272;2023-10-08T02:31:58;16.10;77.60
44767;DHT22;30487;48.716;9.272;2023-10-08T02:34:25;16.00;77.30
44767;DHT22;30487;48.716;9.272;2023-10-08T02:36:50;16.10;77.20
44767;DHT22;30487;48.716;9.272;2023-10-08T02:39:16;16.10;77.30
44767;DHT22;30487;48.716;9.272;2023-10-08T02:41:47;16.10;77.20
44767;DHT22;30487;48.716;9.272;2023-10-08T02:44:14;16.10;77.00
44767;DHT22;30487;48.716;9.272;2023-10-08T02:46:47;16.20;76.80
44767;DHT22;30487;48.716;9.272;2023-10-08T02:49:20;16.10;76.90
44767;DHT22;30487;48.716;9.272;2023-10-08T02:51:47;16.10;77.00
44767;DHT22;30487;48.716;9.272;2023-10-08T02:54:16;16.10;77.00
44767;DHT22;30487;48.716;9.272;2023-10-08T02:56:44;16.10;77.00
44767;DHT22;30487;48.716;9.272;2023-10-08T02:59:11;16.10;77.00
44767;DHT22;30487;48.716;9.272;2023-10-08T03:01:38;16.10;77.10
44767;DHT22;30487;48.716;9.272;2023-10-08T03:04:06;16.10;76.90
44767;DHT22;30487;48.716;9.272;2023-10-08T03:06:41;16.20;76.90
44767;DHT22;30487;48.716;9.272;2023-10-08T03:09:06;16.10;77.00
44767;DHT22;30487;48.716;9.272;2023-10-08T03:11:39;16.10;77.50
44767;DHT22;30487;48.716;9.272;2023-10-08T03:14:05;16.00;77.40
44767;DHT22;30487;48.716;9.272;2023-10-08T03:16:40;16.00;77.40
44767;DHT22;30487;48.716;9.272;2023-10-08T03:19:06;16.00;77.40
44767;DHT22;30487;48.716;9.272;2023-10-08T03:21:32;16.00;77.70
44767;DHT22;30487;48.716;9.272;2023-10-08T03:24:03;15.90;77.90
44767;DHT22;30487;48.716;9.272;2023-10-08T03:26:38;15.90;78.30
44767;DHT22;30487;48.716;9.272;2023-10-08T03:29:05;15.90;77.90
44767;DHT22;30487;48.716;9.272;2023-10-08T03:31:34;15.90;77.90
44767;DHT22;30487;48.716;9.272;2023-10-08T03:34:20;15.90;78.20
44767;DHT22;30487;48.716;9.272;2023-10-08T03:36:47;15.80;78.10
44767;DHT22;30487;48.716;9.272;2023-10-08T03:39:15;15.80;78.30
44767;DHT22;30487;48.716;9.272;2023-10-08T03:41:44;15.70;78.70
44767;DHT22;30487;48.716;9.272;2023-10-08T03:44:29;15.70;78.60
44767;DHT22;30487;48.716;9.272;2023-10-08T03:46:55;15.60;78.70
44767;DHT22;30487;48.716;9.272;2023-10-08T03:49:22;15.60;78.90
44767;DHT22;30487;48.716;9.272;2023-10-08T03:51:49;15.60;78.90
44767;DHT22;30487;48.716;9.272;2023-10-08T03:54:21;15.50;79.40
44767;DHT22;30487;48.716;9.272;2023-10-08T03:56:59;15.40;79.60
44767;DHT22;30487;48.716;9.272;2023-10-08T03:59:26;15.40;79.90
44767;DHT22;30487;48.716;9.272;2023-10-08T04:02:00;15.40;79.90
44767;DHT22;30487;48.716;9.272;2023-10-08T04:04:49;15.40;80.20
44767;DHT22;30487;48.716;9.272;2023-10-08T04:07:20;15.40;80.20
44767;DHT22;30487;48.716;9.272;2023-10-08T04:09:55;15.40;80.40
44767;DHT22;30487;48.716;9.272;2023-10-08T04:12:31;15.30;80.50
44767;DHT22;30487;48.716;9.272;2023-10-08T04:15:03;15.40;80.50
44767;DHT22;30487;48.716;9.272;2023-10-08T04:17:34;15.30;80.70
44767;DHT22;30487;48.716;9.272;2023-10-08T04:20:11;15.40;80.50
44767;DHT22;30487;48.716;9.272;2023-10-08T04:22:58;15.30;80.70
44767;DHT22;30487;48.716;9.272;2023-10-08T04:25:27;15.30;81.10
44767;DHT22;30487;48.716;9.272;2023-10-08T04:27:57;15.20;81.70
44767;DHT22;30487;48.716;9.272;2023-10-08T04:30:27;15.20;81.40
44767;DHT22;30487;48.716;9.272;2023-10-08T04:33:03;15.10;81.30
44767;DHT22;30487;48.716;9.272;2023-10-08T04:35:35;15.20;81.30
44767;DHT22;30487;48.716;9.272;2023-10-08T04:38:20;15.20;81.30
44767;DHT22;30487;48.716;9.272;2023-10-08T04:40:48;15.20;82.00
44767;DHT22;30487;48.716;9.272;2023-10-08T04:43:17;15.10;81.40
44767;DHT22;30487;48.716;9.272;2023-10-08T04:45:51;15.10;81.90
44767;DHT22;30487;48.716;9.272;2023-10-08T04:48:16;15.00;82.10
44767;DHT22;30487;48.716;9.272;2023-10-08T04:50:48;14.90;82.50
44767;DHT22;30487;48.716;9.272;2023-10-08T04:53:25;14.90;82.90
44767;DHT22;30487;48.716;9.272;2023-10-08T04:55:58;14.90;82.90
44767;DHT22;30487;48.716;9.272;2023-10-08T04:58:25;14.90;83.40
44767;DHT22;30487;48.716;9.272;2023-10-08T05:00:59;14.90;83.90
44767;DHT22;30487;48.716;9.272;2023-10-08T05:03:48;14.90;83.20
44767;DHT22;30487;48.716;9.272;2023-10-08T05:06:27;14.90;83.30
44767;DHT22;30487;48.716;9.272;2023-10-08T05:09:04;15.00;82.90
44767;DHT22;30487;48.716;9.272;2023-10-08T05:11:52;15.00;83.20
44767;DHT22;30487;48.716;9.272;2023-10-08T05:14:22;15.00;83.20
44767;DHT22;30487;48.716;9.272;2023-10-08T05:16:58;15.00;83.20
44767;DHT22;30487;48.716;9.272;2023-10-08T05:19:50;15.00;83.00
44767;DHT22;30487;48.716;9.272;2023-10-08T05:22:41;15.00;83.20
44767;DHT22;30487;48.716;9.272;2023-10-08T05:25:10;14.90;83.50
44767;DHT22;30487;48.716;9.272;2023-10-08T05:27:52;14.90;83.90
44767;DHT22;30487;48.716;9.272;2023-10-08T05:30:23;14.90;83.80
44767;DHT22;30487;48.716;9.272;2023-10-08T05:33:05;14.80;84.00
44767;DHT22;30487;48.716;9.272;2023-10-08T05:35:44;14.90;84.00
44767;DHT22;30487;48.716;9.272;2023-10-08T05:38:15;14.90;83.90
44767;DHT22;30487;48.716;9.272;2023-10-08T05:40:59;14.90;84.40
44767;DHT22;30487;48.716;9.272;2023-10-08T05:43:37;14.80;84.50
44767;DHT22;30487;48.716;9.272;2023-10-08T05:46:11;14.80;84.10
44767;DHT22;30487;48.716;9.272;2023-10-08T05:48:56;14.90;84.40
44767;DHT22;30487;48.716;9.272;2023-10-08T05:51:31;14.90;84.50
44767;DHT22;30487;48.716;9.272;2023-10-08T05:54:14;14.80;85.20
44767;DHT22;30487;48.716;9.272;2023-10-08T05:57:08;14.80;85.40
44767;DHT22;30487;48.716;9.272;2023-10-08T05:59:41;14.80;85.50
44767;DHT22;30487;48.716;9.272;2023-10-08T06:02:32;14.80;86.10
44767;DHT22;30487;48.716;9.272;2023-10-08T06:05:01;14.70;87.00
44767;DHT22;30487;48.716;9.272;2023-10-08T06:07:43;14.70;87.00
44767;DHT22;30487;48.716;9.272;2023-10-08T06:10:30;14.60;88.60
44767;DHT22;30487;48.716;9.272;2023-10-08T06:12:59;14.60;87.20
44767;DHT22;30487;48.716;9.272;2023-10-08T06:18:11;14.70;88.70
44767;DHT22;30487;48.716;9.272;2023-10-08T06:20:38;14.70;87.40
44767;DHT22;30487;48.716;9.272;2023-10-08T06:23:17;14.70;88.40
44767;DHT22;30487;48.716;9.272;2023-10-08T06:25:50;14.80;87.20
44767;DHT22;30487;48.716;9.272;2023-10-08T06:28:43;14.80;87.50
44767;DHT22;30487;48.716;9.272;2023-10-08T06:31:10;14.90;87.90
44767;DHT22;30487;48.716;9.272;2023-10-08T06:33:43;14.90;88.10
44767;DHT22;30487;48.716;9.272;2023-10-08T06:36:09;15.00;88.50
44767;DHT22;30487;48.716;9.272;2023-10-08T06:38:47;15.00;88.90
44767;DHT22;30487;48.716;9.272;2023-10-08T06:41:16;15.00;88.20
44767;DHT22;30487;48.716;9.272;2023-10-08T06:43:46;14.90;89.70
44767;DHT22;30487;48.716;9.272;2023-10-08T06:46:32;14.80;90.20
44767;DHT22;30487;48.716;9.272;2023-10-08T06:49:03;14.50;90.30
44767;DHT22;30487;48.716;9.272;2023-10-08T06:51:29;14.40;90.80
44767;DHT22;30487;48.716;9.272;2023-10-08T06:53:56;14.40;90.20
44767;DHT22;30487;48.716;9.272;2023-10-08T06:56:25;14.50;90.20
44767;DHT22;30487;48.716;9.272;2023-10-08T06:58:50;14.50;89.70
44767;DHT22;30487;48.716;9.272;2023-10-08T07:01:20;14.60;89.20
44767;DHT22;30487;48.716;9.272;2023-10-08T07:03:50;14.60;89.20
44767;DHT22;30487;48.716;9.272;2023-10-08T07:06:18;14.70;88.70
44767;DHT22;30487;48.716;9.272;2023-10-08T07:08:52;14.90;88.60
44767;DHT22;30487;48.716;9.272;2023-10-08T07:11:21;15.00;89.20
44767;DHT22;30487;48.716;9.272;2023-10-08T07:13:47;15.30;88.50
44767;DHT22;30487;48.716;9.272;2023-10-08T07:16:13;15.50;87.80
44767;DHT22;30487;48.716;9.272;2023-10-08T07:18:43;15.70;87.10
44767;DHT22;30487;48.716;9.272;2023-10-08T07:21:15;15.90;86.90
44767;DHT22;30487;48.716;9.272;2023-10-08T07:23:41;16.10;87.10
44767;DHT22;30487;48.716;9.272;2023-10-08T07:26:23;16.50;87.60
44767;DHT22;30487;48.716;9.272;2023-10-08T07:28:52;16.80;87.30
44767;DHT22;30487;48.716;9.272;2023-10-08T07:31:20;17.00;87.40
44767;DHT22;30487;48.716;9.272;2023-10-08T07:33:48;17.00;88.00
44767;DHT22;30487;48.716;9.272;2023-10-08T07:36:26;17.00;86.90
44767;DHT22;30487;48.716;9.272;2023-10-08T07:38:56;17.00;86.30
44767;DHT22;30487;48.716;9.272;2023-10-08T07:41:22;16.90;86.20
44767;DHT22;30487;48.716;9.272;2023-10-08T07:43:48;17.00;86.80
44767;DHT22;30487;48.716;9.272;2023-10-08T07:46:30;17.00;87.70
44767;DHT22;30487;48.716;9.272;2023-10-08T07:48:55;17.00;89.00
44767;DHT22;30487;48.716;9.272;2023-10-08T07:51:24;17.00;88.40
44767;DHT22;30487;48.716;9.272;2023-10-08T07:53:52;17.00;89.10
44767;DHT22;30487;48.716;9.272;2023-10-08T07:56:25;17.00;90.30
44767;DHT22;30487;48.716;9.272;2023-10-08T07:58:51;17.10;90.10
44767;DHT22;30487;48.716;9.272;2023-10-08T08:01:17;17.00;89.40
44767;DHT22;30487;48.716;9.272;2023-10-08T08:03:42;16.90;90.10
44767;DHT22;30487;48.716;9.272;2023-10-08T08:06:10;16.80;90.20
44767;DHT22;30487;48.716;9.272;2023-10-08T08:08:37;16.80;90.00
44767;DHT22;30487;48.716;9.272;2023-10-08T08:11:04;16.90;90.00
44767;DHT22;30487;48.716;9.272;2023-10-08T08:13:38;17.00;88.60
44767;DHT22;30487;48.716;9.272;2023-10-08T08:16:04;17.20;89.00
44767;DHT22;30487;48.716;9.272;2023-10-08T08:18:46;17.30;90.50
44767;DHT22;30487;48.716;9.272;2023-10-08T08:21:13;17.50;91.10
44767;DHT22;30487;48.716;9.272;2023-10-08T08:23:44;17.50;90.80
44767;DHT22;30487;48.716;9.272;2023-10-08T08:26:20;17.40;91.40
44767;DHT22;30487;48.716;9.272;2023-10-08T08:28:59;17.50;91.60
44767;DHT22;30487;48.716;9.272;2023-10-08T08:31:28;17.90;91.20
44767;DHT22;30487;48.716;9.272;2023-10-08T08:33:57;18.70;90.30
44767;DHT22;30487;48.716;9.272;2023-10-08T08:36:26;19.40;87.60
44767;DHT22;30487;48.716;9.272;2023-10-08T08:38:52;20.10;86.60
44767;DHT22;30487;48.716;9.272;2023-10-08T08:41:19;20.60;85.50
44767;DHT22;30487;48.716;9.272;2023-10-08T08:43:53;21.20;83.80
44767;DHT22;30487;48.716;9.272;2023-10-08T08:46:34;21.90;82.30
44767;DHT22;30487;48.716;9.272;2023-10-08T08:49:07;22.30;81.40
44767;DHT22;30487;48.716;9.272;2023-10-08T08:51:34;22.50;80.40
44767;DHT22;30487;48.716;9.272;2023-10-08T08:54:00;22.60;79.50
44767;DHT22;30487;48.716;9.272;2023-10-08T08:56:32;23.10;78.90
44767;DHT22;30487;48.716;9.272;2023-10-08T08:58:59;23.70;78.00
44767;DHT22;30487;48.716;9.272;2023-10-08T09:01:26;23.60;76.90
44767;DHT22;30487;48.716;9.272;2023-10-08T09:03:59;24.10;76.50
44767;DHT22;30487;48.716;9.272;2023-10-08T09:06:26;24.60;75.60
44767;DHT22;30487;48.716;9.272;2023-10-08T09:08:53;25.00;74.40
44767;DHT22;30487;48.716;9.272;2023-10-08T09:11:21;25.30;73.50
44767;DHT22;30487;48.716;9.272;2023-10-08T09:13:47;25.70;73.70
44767;DHT22;30487;48.716;9.272;2023-10-08T09:16:14;26.10;73.90
44767;DHT22;30487;48.716;9.272;2023-10-08T09:18:44;26.30;72.90
44767;DHT22;30487;48.716;9.272;2023-10-08T09:21:13;26.40;72.00
44767;DHT22;30487;48.716;9.272;2023-10-08T09:23:40;26.60;72.20
44767;DHT22;30487;48.716;9.272;2023-10-08T09:26:11;26.90;71.00
44767;DHT22;30487;48.716;9.272;2023-10-08T09:28:39;26.80;70.20
44767;DHT22;30487;48.716;9.272;2023-10-08T09:31:10;26.90;70.30
44767;DHT22;30487;48.716;9.272;2023-10-08T09:33:37;27.20;70.40
44767;DHT22;30487;48.716;9.272;2023-10-08T09:36:02;26.90;68.20
44767;DHT22;30487;48.716;9.272;2023-10-08T09:38:33;26.40;69.50
44767;DHT22;30487;48.716;9.272;2023-10-08T09:40:59;26.00;69.60
44767;DHT22;30487;48.716;9.272;2023-10-08T09:43:28;25.50;70.00
44767;DHT22;30487;48.716;9.272;2023-10-08T09:46:00;25.20;70.60
44767;DHT22;30487;48.716;9.272;2023-10-08T09:48:31;24.70;72.00
44767;DHT22;30487;48.716;9.272;2023-10-08T09:50:59;24.40;72.70
44767;DHT22;30487;48.716;9.272;2023-10-08T09:53:35;24.20;73.10
44767;DHT22;30487;48.716;9.272;2023-10-08T09:56:13;24.00;73.40
44767;DHT22;30487;48.716;9.272;2023-10-08T09:58:41;23.70;74.90
44767;DHT22;30487;48.716;9.272;2023-10-08T10:01:08;23.60;74.90
44767;DHT22;30487;48.716;9.272;2023-10-08T10:03:34;23.40;73.10
44767;DHT22;30487;48.716;9.272;2023-10-08T10:06:01;23.20;73.00
44767;DHT22;30487;48.716;9.272;2023-10-08T10:08:27;22.90;73.40
44767;DHT22;30487;48.716;9.272;2023-10-08T10:11:01;22.80;74.20
44767;DHT22;30487;48.716;9.272;2023-10-08T10:13:51;22.70;75.30
44767;DHT22;30487;48.716;9.272;2023-10-08T10:16:23;22.50;75.60
44767;DHT22;30487;48.716;9.272;2023-10-08T10:18:49;22.30;76.40
44767;DHT22;30487;48.716;9.272;2023-10-08T10:23:49;22.10;76.60
44767;DHT22;30487;48.716;9.272;2023-10-08T10:31:40;22.40;76.50
44767;DHT22;30487;48.716;9.272;2023-10-08T10:34:12;22.40;75.80
44767;DHT22;30487;48.716;9.272;2023-10-08T10:36:39;22.40;76.30
44767;DHT22;30487;48.716;9.272;2023-10-08T10:39:11;22.50;77.60
44767;DHT22;30487;48.716;9.272;2023-10-08T10:41:47;22.70;78.00
44767;DHT22;30487;48.716;9.272;2023-10-08T10:44:17;22.70;78.10
44767;DHT22;30487;48.716;9.272;2023-10-08T10:46:43;22.70;78.50
44767;DHT22;30487;48.716;9.272;2023-10-08T10:49:18;22.70;78.40
44767;DHT22;30487;48.716;9.272;2023-10-08T10:51:48;22.70;78.90
44767;DHT22;30487;48.716;9.272;2023-10-08T10:54:18;22.60;78.50
44767;DHT22;30487;48.716;9.272;2023-10-08T10:56:47;22.60;78.40
44767;DHT22;30487;48.716;9.272;2023-10-08T10:59:13;22.60;78.80
44767;DHT22;30487;48.716;9.272;2023-10-08T11:01:50;22.60;78.60
44767;DHT22;30487;48.716;9.272;2023-10-08T11:04:31;22.60;78.90
44767;DHT22;30487;48.716;9.272;2023-10-08T11:06:57;22.60;79.00
44767;DHT22;30487;48.716;9.272;2023-10-08T11:09:25;22.60;79.50
44767;DHT22;30487;48.716;9.272;2023-10-08T11:12:02;22.60;79.30
44767;DHT22;30487;48.716;9.272;2023-10-08T11:14:28;22.60;80.60
44767;DHT22;30487;48.716;9.272;2023-10-08T11:16:55;22.70;81.40
44767;DHT22;30487;48.716;9.272;2023-10-08T11:19:20;22.80;82.20
44767;DHT22;30487;48.716;9.272;2023-10-08T11:21:52;22.80;80.70
44767;DHT22;30487;48.716;9.272;2023-10-08T11:24:30;22.80;81.20
44767;DHT22;30487;48.716;9.272;2023-10-08T11:26:59;22.80;81.20
44767;DHT22;30487;48.716;9.272;2023-10-08T11:29:32;22.80;82.40
44767;DHT22;30487;48.716;9.272;2023-10-08T11:32:00;22.80;83.40
44767;DHT22;30487;48.716;9.272;2023-10-08T11:34:31;22.80;85.20
44767;DHT22;30487;48.716;9.272;2023-10-08T11:37:02;22.90;83.50
44767;DHT22;30487;48.716;9.272;2023-10-08T11:39:39;23.10;84.60
44767;DHT22;30487;48.716;9.272;2023-10-08T11:42:11;23.10;83.20
44767;DHT22;30487;48.716;9.272;2023-10-08T11:44:57;23.30;83.60
44767;DHT22;30487;48.716;9.272;2023-10-08T11:47:25;23.70;83.10
44767;DHT22;30487;48.716;9.272;2023-10-08T11:49:56;24.00;83.80
44767;DHT22;30487;48.716;9.272;2023-10-08T11:52:38;24.20;81.20
44767;DHT22;30487;48.716;9.272;2023-10-08T11:55:11;24.40;78.50
44767;DHT22;30487;48.716;9.272;2023-10-08T11:57:48;24.60;75.90
44767;DHT22;30487;48.716;9.272;2023-10-08T12:00:16;24.70;76.30
44767;DHT22;30487;48.716;9.272;2023-10-08T12:02:48;24.70;76.60
44767;DHT22;30487;48.716;9.272;2023-10-08T12:05:14;24.60;76.00
44767;DHT22;30487;48.716;9.272;2023-10-08T12:07:49;24.40;78.90
44767;DHT22;30487;48.716;9.272;2023-10-08T12:10:17;24.30;77.60
44767;DHT22;30487;48.716;9.272;2023-10-08T12:12:51;24.20;76.70
44767;DHT22;30487;48.716;9.272;2023-10-08T12:15:21;24.20;77.10
44767;DHT22;30487;48.716;9.272;2023-10-08T12:17:50;24.50;77.00
44767;DHT22;30487;48.716;9.272;2023-10-08T12:20:40;24.70;76.90
44767;DHT22;30487;48.716;9.272;2023-10-08T12:23:12;24.70;76.20
44767;DHT22;30487;48.716;9.272;2023-10-08T12:25:53;24.70;75.80
44767;DHT22;30487;48.716;9.272;2023-10-08T12:28:21;24.60;76.40
44767;DHT22;30487;48.716;9.272;2023-10-08T12:30:49;24.90;77.40
44767;DHT22;30487;48.716;9.272;2023-10-08T12:33:21;25.00;78.10
44767;DHT22;30487;48.716;9.272;2023-10-08T12:35:50;25.10;76.70
44767;DHT22;30487;48.716;9.272;2023-10-08T12:38:19;25.20;78.80
44767;DHT22;30487;48.716;9.272;2023-10-08T12:40:51;25.50;76.10
44767;DHT22;30487;48.716;9.272;2023-10-08T12:43:23;26.40;76.50
44767;DHT22;30487;48.716;9.272;2023-10-08T12:45:53;27.90;73.70
44767;DHT22;30487;48.716;9.272;2023-10-08T12:48:23;29.10;71.40
44767;DHT22;30487;48.716;9.272;2023-10-08T12:50:53;29.80;70.80
44767;DHT22;30487;48.716;9.272;2023-10-08T12:53:22;29.90;70.70
44767;DHT22;30487;48.716;9.272;2023-10-08T12:55:55;29.70;68.70
44767;DHT22;30487;48.716;9.272;2023-10-08T12:58:24;29.50;69.10
44767;DHT22;30487;48.716;9.272;2023-10-08T13:00:58;29.10;68.30
44767;DHT22;30487;48.716;9.272;2023-10-08T13:03:25;28.50;68.90
44767;DHT22;30487;48.716;9.272;2023-10-08T13:05:51;28.00;70.20
44767;DHT22;30487;48.716;9.272;2023-10-08T13:08:20;27.80;71.60
44767;DHT22;30487;48.716;9.272;2023-10-08T13:10:48;28.20;70.30
44767;DHT22;30487;48.716;9.272;2023-10-08T13:13:14;28.80;69.40
44767;DHT22;30487;48.716;9.272;2023-10-08T13:15:40;29.40;70.30
44767;DHT22;30487;48.716;9.272;2023-10-08T13:18:09;29.90;68.00
44767;DHT22;30487;48.716;9.272;2023-10-08T13:20:35;29.50;67.30
44767;DHT22;30487;48.716;9.272;2023-10-08T13:23:01;29.70;67.10
44767;DHT22;30487;48.716;9.272;2023-10-08T13:25:26;29.60;64.80
44767;DHT22;30487;48.716;9.272;2023-10-08T13:27:52;29.70;65.30
44767;DHT22;30487;48.716;9.272;2023-10-08T13:30:18;29.70;65.20
44767;DHT22;30487;48.716;9.272;2023-10-08T13:32:43;29.80;63.80
44767;DHT22;30487;48.716;9.272;2023-10-08T13:35:10;29.50;63.00
44767;DHT22;30487;48.716;9.272;2023-10-08T13:37:37;29.60;64.40
44767;DHT22;30487;48.716;9.272;2023-10-08T13:40:03;29.40;63.60
44767;DHT22;30487;48.716;9.272;2023-10-08T13:42:29;29.80;63.90
44767;DHT22;30487;48.716;9.272;2023-10-08T13:44:55;30.10;64.40
44767;DHT22;30487;48.716;9.272;2023-10-08T13:47:23;30.30;65.90
44767;DHT22;30487;48.716;9.272;2023-10-08T13:49:52;30.70;65.40
44767;DHT22;30487;48.716;9.272;2023-10-08T13:52:19;30.90;66.10
44767;DHT22;30487;48.716;9.272;2023-10-08T13:54:46;31.00;66.00
44767;DHT22;30487;48.716;9.272;2023-10-08T13:57:21;31.10;65.90
44767;DHT22;30487;48.716;9.272;2023-10-08T13:59:49;31.10;64.50
44767;DHT22;30487;48.716;9.272;2023-10-08T14:02:16;31.20;62.90
44767;DHT22;30487;48.716;9.272;2023-10-08T14:04:45;31.40;62.10
44767;DHT22;30487;48.716;9.272;2023-10-08T14:07:11;31.60;61.90
44767;DHT22;30487;48.716;9.272;2023-10-08T14:09:42;31.50;62.30
44767;DHT22;30487;48.716;9.272;2023-10-08T14:12:08;31.30;62.10
44767;DHT22;30487;48.716;9.272;2023-10-08T14:14:34;31.10;62.70
44767;DHT22;30487;48.716;9.272;2023-10-08T14:17:01;31.10;62.10
44767;DHT22;30487;48.716;9.272;2023-10-08T14:19:32;31.30;60.90
44767;DHT22;30487;48.716;9.272;2023-10-08T14:22:17;31.20;61.40
44767;DHT22;30487;48.716;9.272;2023-10-08T14:24:45;31.30;61.60
44767;DHT22;30487;48.716;9.272;2023-10-08T14:27:25;31.20;61.20
44767;DHT22;30487;48.716;9.272;2023-10-08T14:29:57;31.00;61.40
44767;DHT22;30487;48.716;9.272;2023-10-08T14:32:27;31.00;61.20
44767;DHT22;30487;48.716;9.272;2023-10-08T14:34:53;30.70;60.60
44767;DHT22;30487;48.716;9.272;2023-10-08T14:37:21;30.50;60.40
44767;DHT22;30487;48.716;9.272;2023-10-08T14:40:06;30.30;60.80
44767;DHT22;30487;48.716;9.272;2023-10-08T14:42:50;30.20;59.80
44767;DHT22;30487;48.716;9.272;2023-10-08T14:45:27;30.20;61.10
44767;DHT22;30487;48.716;9.272;2023-10-08T14:47:54;30.10;61.00
44767;DHT22;30487;48.716;9.272;2023-10-08T14:50:21;29.90;61.60
44767;DHT22;30487;48.716;9.272;2023-10-08T14:52:47;29.80;61.70
44767;DHT22;30487;48.716;9.272;2023-10-08T14:55:13;29.70;62.90
44767;DHT22;30487;48.716;9.272;2023-10-08T14:57:39;29.60;62.80
44767;DHT22;30487;48.716;9.272;2023-10-08T15:00:07;29.40;63.00
44767;DHT22;30487;48.716;9.272;2023-10-08T15:02:34;29.40;62.70
44767;DHT22;30487;48.716;9.272;2023-10-08T15:04:59;29.20;63.60
44767;DHT22;30487;48.716;9.272;2023-10-08T15:07:27;29.00;63.70
44767;DHT22;30487;48.716;9.272;2023-10-08T15:09:53;28.80;64.30
44767;DHT22;30487;48.716;9.272;2023-10-08T15:12:23;28.60;65.50
44767;DHT22;30487;48.716;9.272;2023-10-08T15:14:51;28.50;66.00
44767;DHT22;30487;48.716;9.272;2023-10-08T15:17:16;28.50;66.20
44767;DHT22;30487;48.716;9.272;2023-10-08T15:19:42;28.40;67.60
44767;DHT22;30487;48.716;9.272;2023-10-08T15:22:08;28.20;66.50
44767;DHT22;30487;48.716;9.272;2023-10-08T15:24:33;28.00;66.60
44767;DHT22;30487;48.716;9.272;2023-10-08T15:27:02;27.80;66.50
44767;DHT22;30487;48.716;9.272;2023-10-08T15:29:29;27.60;67.10
44767;DHT22;30487;48.716;9.272;2023-10-08T15:31:55;27.50;67.40
44767;DHT22;30487;48.716;9.272;2023-10-08T15:34:22;27.30;68.00
44767;DHT22;30487;48.716;9.272;2023-10-08T15:36:54;27.00;67.90
44767;DHT22;30487;48.716;9.272;2023-10-08T15:39:20;27.00;68.60
44767;DHT22;30487;48.716;9.272;2023-10-08T15:41:49;26.80;68.70
44767;DHT22;30487;48.716;9.272;2023-10-08T15:44:16;26.70;69.10
44767;DHT22;30487;48.716;9.272;2023-10-08T15:46:46;26.50;70.00
44767;DHT22;30487;48.716;9.272;2023-10-08T15:49:12;26.20;70.10
44767;DHT22;30487;48.716;9.272;2023-10-08T15:51:38;26.10;71.20
44767;DHT22;30487;48.716;9.272;2023-10-08T15:54:04;25.90;71.40
44767;DHT22;30487;48.716;9.272;2023-10-08T15:56:31;25.70;71.70
44767;DHT22;30487;48.716;9.272;2023-10-08T15:58:57;25.50;72.10
44767;DHT22;30487;48.716;9.272;2023-10-08T16:01:22;25.40;72.50
44767;DHT22;30487;48.716;9.272;2023-10-08T16:03:48;25.30;72.30